Time;durP1;ratioP1;P1;durP2;ratioP2;P2;SDS_P1;SDS_P2;PMS_P1;PMS_P2;Temp;Humidity;BMP_temperature;BMP_pressure;BME280_temperature;BME280_humidity;BME280_pressure;Samples;Min_cycle;Max_cycle;Signal;HPM_P1;HPM_P2
2022/06/16 00:02:13;;;;;;;2.43;1.70;;;15.30;99.90;;;;;;4961853;28;20525;-86
2022/06/16 00:04:45;;;;;;;1.70;1.43;;;15.30;99.90;;;;;;4960089;28;20531;-87
2022/06/16 00:07:14;;;;;;;1.80;1.70;;;15.20;99.90;;;;;;4952114;28;20538;-86
2022/06/16 00:09:41;;;;;;;1.97;1.33;;;15.20;99.90;;;;;;4955919;28;20471;-87
2022/06/16 00:12:09;;;;;;;1.57;1.47;;;15.20;99.90;;;;;;4958343;28;20515;-85
2022/06/16 00:14:36;;;;;;;2.13;1.63;;;15.20;99.90;;;;;;4957350;28;20468;-85
2022/06/16 00:17:03;;;;;;;2.27;2.07;;;15.30;99.90;;;;;;4955068;28;20471;-85
2022/06/16 00:19:31;;;;;;;1.90;1.80;;;15.20;99.90;;;;;;4954591;28;20470;-83
2022/06/16 00:21:58;;;;;;;1.23;1.13;;;15.20;99.90;;;;;;4956586;28;21282;-83
2022/06/16 00:24:27;;;;;;;2.90;2.07;;;15.10;99.90;;;;;;4952413;28;20504;-83
2022/06/16 00:26:56;;;;;;;4.50;1.83;;;14.90;99.90;;;;;;4961201;28;20975;-83
2022/06/16 00:29:24;;;;;;;4.77;2.63;;;15.00;99.90;;;;;;4953955;28;20546;-84
2022/06/16 00:31:51;;;;;;;3.30;1.83;;;15.10;99.90;;;;;;4958756;28;20533;-85
2022/06/16 00:34:18;;;;;;;2.80;2.60;;;15.10;99.90;;;;;;4959281;28;20494;-84
2022/06/16 00:36:47;;;;;;;1.70;1.57;;;15.10;99.90;;;;;;4961431;28;20479;-83
2022/06/16 00:39:14;;;;;;;1.73;1.63;;;14.90;99.90;;;;;;4954165;28;20963;-83
2022/06/16 00:41:41;;;;;;;3.60;2.33;;;14.80;99.90;;;;;;4961647;28;20503;-83
2022/06/16 00:44:17;;;;;;;2.20;1.37;;;14.80;99.90;;;;;;4961929;28;20510;-83
2022/06/16 00:46:44;;;;;;;4.23;1.70;;;14.60;99.90;;;;;;4964719;28;21093;-82
2022/06/16 00:49:13;;;;;;;1.87;1.37;;;14.70;99.90;;;;;;4956409;28;20468;-83
2022/06/16 00:51:44;;;;;;;2.10;1.90;;;14.70;99.90;;;;;;4959904;28;20965;-83
2022/06/16 00:54:21;;;;;;;6.53;4.17;;;14.70;99.90;;;;;;4958291;28;20964;-83
2022/06/16 00:56:49;;;;;;;1.53;1.37;;;14.70;99.90;;;;;;4958879;28;20474;-83
2022/06/16 00:59:16;;;;;;;1.70;1.60;;;14.60;99.90;;;;;;4955790;28;20448;-82
2022/06/16 01:01:46;;;;;;;1.47;1.37;;;14.70;99.90;;;;;;4956448;28;20528;-84
2022/06/16 01:07:00;;;;;;;1.60;1.50;;;14.60;99.90;;;;;;4957984;28;20824;-82
2022/06/16 01:09:31;;;;;;;2.37;1.50;;;14.50;99.90;;;;;;4958220;28;20906;-84
2022/06/16 01:15:13;;;;;;;2.13;2.03;;;14.50;99.90;;;;;;4959105;28;20469;-83
2022/06/16 01:17:52;;;;;;;1.80;1.70;;;14.50;99.90;;;;;;4964983;28;20466;-84
2022/06/16 01:20:29;;;;;;;5.57;2.50;;;14.50;99.90;;;;;;4963457;28;20979;-82
2022/06/16 01:23:18;;;;;;;1.70;1.60;;;14.30;99.90;;;;;;4961384;28;21083;-83
2022/06/16 01:25:57;;;;;;;2.27;2.17;;;14.40;99.90;;;;;;4960404;28;21283;-85
2022/06/16 01:28:27;;;;;;;2.20;2.00;;;14.40;99.90;;;;;;4952679;28;20470;-84
2022/06/16 01:31:03;;;;;;;2.40;1.77;;;14.50;99.90;;;;;;4950804;28;21148;-84
2022/06/16 01:33:39;;;;;;;3.10;1.70;;;14.50;99.90;;;;;;4960375;28;20470;-83
2022/06/16 01:36:11;;;;;;;2.03;1.80;;;14.50;99.90;;;;;;4955082;28;20986;-82
2022/06/16 01:38:45;;;;;;;1.63;1.53;;;14.40;99.90;;;;;;4957547;28;20476;-83
2022/06/16 01:41:22;;;;;;;2.80;2.60;;;14.20;99.90;;;;;;4980554;28;20474;-83
2022/06/16 01:43:56;;;;;;;1.33;1.23;;;14.30;99.90;;;;;;4950672;28;20505;-86
2022/06/16 01:46:26;;;;;;;2.20;2.07;;;14.20;99.90;;;;;;4959852;28;20450;-86
2022/06/16 01:49:00;;;;;;;1.73;1.00;;;14.20;99.90;;;;;;4953601;28;20845;-84
2022/06/16 01:51:32;;;;;;;1.50;1.40;;;14.10;99.90;;;;;;4966083;28;20459;-84
2022/06/16 01:54:04;;;;;;;2.07;1.87;;;14.10;99.90;;;;;;4957334;28;20898;-86
2022/06/16 01:56:38;;;;;;;1.20;1.10;;;14.00;99.90;;;;;;4959873;28;20775;-84
2022/06/16 01:59:09;;;;;;;1.67;1.57;;;14.10;99.90;;;;;;4949911;28;20546;-84
2022/06/16 02:01:43;;;;;;;3.63;2.30;;;14.00;99.90;;;;;;4958327;28;20561;-85
2022/06/16 02:04:15;;;;;;;1.57;1.10;;;14.00;99.90;;;;;;4952495;28;20523;-84
2022/06/16 02:06:47;;;;;;;0.70;0.70;;;14.00;99.90;;;;;;4955439;28;20475;-87
2022/06/16 02:09:28;;;;;;;1.97;1.87;;;14.10;99.90;;;;;;4963832;28;20474;-84
2022/06/16 02:11:58;;;;;;;1.70;1.60;;;14.00;99.90;;;;;;4971785;28;20463;-84
2022/06/16 02:14:32;;;;;;;1.57;1.30;;;13.90;99.90;;;;;;4977243;28;20532;-86
2022/06/16 02:17:02;;;;;;;1.37;1.27;;;13.90;99.90;;;;;;4959115;28;20676;-84
2022/06/16 02:19:30;;;;;;;1.10;1.10;;;13.80;99.90;;;;;;4967970;28;20461;-86
2022/06/16 02:21:57;;;;;;;4.60;1.73;;;13.80;99.90;;;;;;4966787;28;20470;-85
2022/06/16 02:24:27;;;;;;;1.60;1.17;;;13.80;99.90;;;;;;4964631;28;20493;-85
2022/06/16 02:26:55;;;;;;;1.77;1.67;;;13.70;99.90;;;;;;4956845;28;20476;-85
2022/06/16 02:29:29;;;;;;;1.73;1.60;;;13.70;99.90;;;;;;4962943;28;20466;-85
2022/06/16 02:32:12;;;;;;;0.80;0.80;;;13.80;99.90;;;;;;4962109;28;20519;-87
2022/06/16 02:34:51;;;;;;;3.23;1.73;;;13.80;99.90;;;;;;4963956;28;21377;-86
2022/06/16 02:37:31;;;;;;;2.00;1.90;;;13.80;99.90;;;;;;4953266;28;20472;-85
2022/06/16 02:40:21;;;;;;;1.10;1.00;;;13.80;99.90;;;;;;4960261;28;20503;-85
2022/06/16 02:42:56;;;;;;;2.67;1.73;;;13.70;99.90;;;;;;4959653;28;20454;-86
2022/06/16 02:45:33;;;;;;;1.90;1.27;;;13.60;99.90;;;;;;4956027;28;20501;-85
2022/06/16 02:48:05;;;;;;;1.80;1.70;;;13.60;99.90;;;;;;4959785;28;20470;-85
2022/06/16 02:50:42;;;;;;;2.90;2.10;;;13.80;99.90;;;;;;4960939;28;20526;-84
2022/06/16 02:53:18;;;;;;;1.80;1.70;;;13.70;99.90;;;;;;4960682;28;21150;-85
2022/06/16 02:55:48;;;;;;;2.13;1.80;;;13.70;99.90;;;;;;4954720;28;20559;-85
2022/06/16 02:58:19;;;;;;;1.40;1.30;;;13.70;99.90;;;;;;4954381;28;20497;-85
2022/06/16 03:00:52;;;;;;;1.40;1.30;;;13.80;99.90;;;;;;4954716;28;20475;-86
2022/06/16 03:03:24;;;;;;;1.80;1.70;;;13.90;99.90;;;;;;4962121;28;20999;-85
2022/06/16 03:05:52;;;;;;;2.87;1.50;;;13.80;99.90;;;;;;4961898;28;20493;-85
2022/06/16 03:08:19;;;;;;;1.70;1.60;;;13.90;99.90;;;;;;4953796;28;20904;-84
2022/06/16 03:10:52;;;;;;;2.00;1.90;;;13.80;99.90;;;;;;4955967;28;20464;-85
2022/06/16 03:13:20;;;;;;;1.33;1.27;;;14.00;99.90;;;;;;4953326;28;20470;-85
2022/06/16 03:15:49;;;;;;;1.40;1.30;;;14.10;99.90;;;;;;4963955;28;20526;-87
2022/06/16 03:18:16;;;;;;;1.20;1.10;;;14.10;99.90;;;;;;4964351;28;20999;-85
2022/06/16 03:20:45;;;;;;;1.87;1.77;;;14.20;99.90;;;;;;4960872;28;20468;-85
2022/06/16 03:23:12;;;;;;;2.10;1.40;;;14.20;99.90;;;;;;4958264;28;20478;-86
2022/06/16 03:25:40;;;;;;;1.57;1.47;;;14.10;99.90;;;;;;4963076;28;20484;-85
2022/06/16 03:28:08;;;;;;;1.37;1.20;;;14.10;99.90;;;;;;4957013;28;20473;-87
2022/06/16 03:30:36;;;;;;;1.10;1.00;;;14.00;99.90;;;;;;4958646;28;20478;-85
2022/06/16 03:33:04;;;;;;;1.60;1.50;;;14.00;99.90;;;;;;4958297;28;20519;-85
2022/06/16 03:35:31;;;;;;;3.60;1.83;;;13.90;99.90;;;;;;4956891;28;20478;-85
2022/06/16 03:38:00;;;;;;;2.47;1.43;;;13.90;99.90;;;;;;4960288;28;20472;-84
2022/06/16 03:40:27;;;;;;;1.97;1.33;;;14.00;99.90;;;;;;4962333;28;20540;-85
2022/06/16 03:42:55;;;;;;;4.63;2.03;;;14.00;99.90;;;;;;4962571;28;20465;-85
2022/06/16 03:45:22;;;;;;;3.00;1.73;;;14.00;99.90;;;;;;4952661;28;20547;-84
2022/06/16 03:47:49;;;;;;;1.90;1.80;;;13.80;99.90;;;;;;4956317;28;20577;-85
2022/06/16 03:50:18;;;;;;;0.93;0.80;;;13.90;99.90;;;;;;4959279;28;20560;-85
2022/06/16 03:52:45;;;;;;;1.60;1.50;;;14.10;99.90;;;;;;4959886;28;20469;-82
2022/06/16 03:55:14;;;;;;;1.83;1.60;;;14.20;99.90;;;;;;4955056;28;20477;-84
2022/06/16 03:57:41;;;;;;;1.43;1.33;;;14.20;99.90;;;;;;4960934;28;20497;-84
2022/06/16 04:00:09;;;;;;;1.27;1.17;;;14.30;99.90;;;;;;4959299;28;20531;-85
2022/06/16 04:02:36;;;;;;;1.50;1.40;;;14.40;99.90;;;;;;4955511;28;20466;-84
2022/06/16 04:05:06;;;;;;;1.87;1.43;;;14.40;99.90;;;;;;4951839;28;20590;-84
2022/06/16 04:07:34;;;;;;;1.30;1.20;;;14.50;99.90;;;;;;4949828;28;20466;-86
2022/06/16 04:10:01;;;;;;;1.30;1.20;;;14.50;99.90;;;;;;4957176;28;20549;-85
2022/06/16 04:12:29;;;;;;;1.80;1.70;;;14.70;99.90;;;;;;4958076;28;20486;-84
2022/06/16 04:14:56;;;;;;;3.90;1.33;;;14.70;99.90;;;;;;4974215;28;20473;-84
2022/06/16 04:17:23;;;;;;;1.10;1.00;;;14.80;99.90;;;;;;4986864;28;20461;-87
2022/06/16 04:22:35;;;;;;;1.63;1.50;;;15.00;99.90;;;;;;4969455;28;20973;-84
2022/06/16 04:25:02;;;;;;;2.23;2.13;;;15.20;99.90;;;;;;4967290;28;20496;-85
2022/06/16 04:27:30;;;;;;;1.40;1.20;;;15.50;99.90;;;;;;4967036;28;20474;-84
2022/06/16 04:29:57;;;;;;;2.10;1.67;;;15.80;99.90;;;;;;4966722;28;20998;-86
2022/06/16 04:32:24;;;;;;;3.23;1.50;;;16.10;99.90;;;;;;4963426;28;20510;-85
2022/06/16 04:34:51;;;;;;;1.37;1.27;;;16.20;99.90;;;;;;4960117;28;20503;-84
2022/06/16 04:37:18;;;;;;;4.93;3.30;;;16.10;99.90;;;;;;4964649;28;20540;-85
2022/06/16 04:39:45;;;;;;;1.73;1.63;;;16.10;99.90;;;;;;4958367;28;20461;-84
2022/06/16 04:42:12;;;;;;;1.63;1.53;;;16.20;99.90;;;;;;4963598;28;20469;-84
2022/06/16 04:44:41;;;;;;;2.63;1.30;;;16.20;99.90;;;;;;4963849;28;20521;-85
2022/06/16 04:47:09;;;;;;;1.57;1.47;;;16.10;99.90;;;;;;4958256;28;20462;-85
2022/06/16 04:49:37;;;;;;;1.50;1.40;;;16.20;99.90;;;;;;4965795;28;20478;-85
2022/06/16 04:52:05;;;;;;;1.87;1.10;;;16.20;99.90;;;;;;4954835;28;20475;-85
2022/06/16 04:54:33;;;;;;;1.27;1.17;;;16.30;99.90;;;;;;4966910;28;20510;-86
2022/06/16 04:57:00;;;;;;;1.20;1.10;;;16.30;99.90;;;;;;4954135;28;20503;-85
2022/06/16 04:59:27;;;;;;;2.07;1.80;;;16.30;99.90;;;;;;4957746;28;20471;-86
2022/06/16 05:01:56;;;;;;;3.70;1.27;;;16.40;99.90;;;;;;4961669;28;20472;-86
2022/06/16 05:04:23;;;;;;;1.83;1.20;;;16.50;99.90;;;;;;4959928;28;20503;-86
2022/06/16 05:06:50;;;;;;;1.80;1.70;;;16.70;99.90;;;;;;4964359;28;20480;-85
2022/06/16 05:09:17;;;;;;;1.37;1.23;;;16.80;99.90;;;;;;4949525;28;20466;-85
2022/06/16 05:11:44;;;;;;;1.27;1.17;;;17.00;99.90;;;;;;4960042;28;20464;-87
2022/06/16 05:14:10;;;;;;;4.27;1.70;;;17.20;99.90;;;;;;4957182;28;20480;-86
2022/06/16 05:16:37;;;;;;;1.83;1.00;;;17.50;99.90;;;;;;4959842;28;21136;-85
2022/06/16 05:19:06;;;;;;;1.30;1.20;;;17.40;99.90;;;;;;4961933;28;20464;-86
2022/06/16 05:21:33;;;;;;;1.20;1.10;;;17.50;99.90;;;;;;4958959;28;20450;-85
2022/06/16 05:24:00;;;;;;;2.37;1.50;;;17.80;99.90;;;;;;4961952;28;20472;-86
2022/06/16 05:26:28;;;;;;;3.67;1.23;;;17.90;99.90;;;;;;4964909;28;20492;-85
2022/06/16 05:28:55;;;;;;;1.93;1.83;;;18.20;99.90;;;;;;4951626;28;20500;-86
2022/06/16 05:31:23;;;;;;;1.67;1.57;;;18.40;99.90;;;;;;4963807;28;20465;-85
2022/06/16 05:33:50;;;;;;;1.90;1.80;;;18.50;99.90;;;;;;4961788;28;20503;-86
2022/06/16 05:36:18;;;;;;;2.07;1.50;;;18.60;99.90;;;;;;4960764;28;20474;-85
2022/06/16 05:38:45;;;;;;;1.90;1.33;;;18.60;99.90;;;;;;4956868;28;20555;-86
2022/06/16 05:41:15;;;;;;;3.07;1.70;;;18.70;99.90;;;;;;4957686;28;20468;-86
2022/06/16 05:43:43;;;;;;;2.63;1.73;;;18.70;99.90;;;;;;4961783;28;20473;-85
2022/06/16 05:46:16;;;;;;;2.00;1.90;;;18.80;99.90;;;;;;4964615;28;20520;-86
2022/06/16 05:48:43;;;;;;;2.47;1.67;;;18.70;99.90;;;;;;4957284;28;20560;-86
2022/06/16 05:51:13;;;;;;;4.10;1.43;;;18.70;99.90;;;;;;4954403;28;21119;-88
2022/06/16 05:53:42;;;;;;;1.30;1.20;;;19.10;99.90;;;;;;4958763;28;20569;-86
2022/06/16 05:56:10;;;;;;;3.00;2.30;;;19.20;99.90;;;;;;4961028;28;20481;-88
2022/06/16 05:58:37;;;;;;;1.93;1.83;;;19.60;99.90;;;;;;4963711;28;20496;-89
2022/06/16 06:01:06;;;;;;;2.30;1.50;;;19.50;99.90;;;;;;4963985;28;20467;-92
2022/06/16 06:03:33;;;;;;;4.60;1.77;;;19.40;99.90;;;;;;4963616;28;20469;-89
2022/06/16 06:06:00;;;;;;;1.73;1.63;;;19.10;99.90;;;;;;4959350;28;20487;-88
2022/06/16 06:16:56;;;;;;;2.00;1.87;;;20.20;99.90;;;;;;4961923;28;20866;-88
2022/06/16 06:19:26;;;;;;;1.90;1.80;;;20.20;99.90;;;;;;4955601;28;20470;-90
2022/06/16 06:22:06;;;;;;;6.20;1.60;;;20.00;99.90;;;;;;4960400;28;21093;-89
2022/06/16 06:24:35;;;;;;;2.13;1.93;;;20.30;99.90;;;;;;4958741;28;20570;-89
2022/06/16 06:27:06;;;;;;;6.43;1.90;;;20.40;99.90;;;;;;4955714;28;20521;-89
2022/06/16 06:29:34;;;;;;;1.83;1.73;;;20.30;99.90;;;;;;4959114;28;20471;-89
2022/06/16 06:32:01;;;;;;;1.80;1.67;;;20.60;99.90;;;;;;4956671;28;20513;-94
2022/06/16 06:34:29;;;;;;;1.50;1.40;;;20.60;99.90;;;;;;4955436;28;20559;-89
2022/06/16 06:36:56;;;;;;;1.40;1.30;;;20.70;99.90;;;;;;4960726;28;21007;-88
2022/06/16 06:39:23;;;;;;;2.50;1.67;;;20.40;99.90;;;;;;4960550;28;21056;-89
2022/06/16 06:41:50;;;;;;;1.80;1.70;;;20.70;99.90;;;;;;4962263;28;20469;-90
2022/06/16 06:44:19;;;;;;;1.47;1.37;;;20.70;99.90;;;;;;4963649;28;20471;-88
2022/06/16 06:46:46;;;;;;;1.77;1.67;;;20.80;99.90;;;;;;4956934;28;20475;-89
2022/06/16 06:49:13;;;;;;;2.83;2.30;;;20.80;99.30;;;;;;4956645;28;20483;-88
2022/06/16 06:51:40;;;;;;;1.80;1.70;;;20.70;99.90;;;;;;4959640;28;20472;-87
2022/06/16 06:54:07;;;;;;;6.70;1.97;;;20.80;99.90;;;;;;4967794;28;20476;-88
2022/06/16 06:56:34;;;;;;;1.43;1.33;;;20.90;99.90;;;;;;4959080;28;20475;-88
2022/06/16 06:59:05;;;;;;;2.27;2.10;;;21.20;99.40;;;;;;4960259;28;20559;-88
2022/06/16 07:01:34;;;;;;;1.83;1.73;;;21.40;99.50;;;;;;4957994;28;20494;-88
2022/06/16 07:04:02;;;;;;;1.57;1.47;;;21.60;99.20;;;;;;4959297;28;20473;-88
2022/06/16 07:06:30;;;;;;;1.93;1.73;;;21.80;97.60;;;;;;4955205;28;20493;-87
2022/06/16 07:08:57;;;;;;;4.63;2.53;;;21.80;98.10;;;;;;4959286;28;20572;-88
2022/06/16 07:11:25;;;;;;;2.50;2.03;;;22.10;97.60;;;;;;4959864;28;20472;-88
2022/06/16 07:13:52;;;;;;;5.00;1.37;;;22.60;97.20;;;;;;4955959;28;20472;-89
2022/06/16 07:16:20;;;;;;;1.90;1.40;;;22.80;94.90;;;;;;4976489;28;20461;-88
2022/06/16 07:18:49;;;;;;;2.13;2.03;;;23.10;97.00;;;;;;4974460;28;20543;-89
2022/06/16 07:21:16;;;;;;;2.57;2.37;;;23.30;97.20;;;;;;4971191;28;20469;-88
2022/06/16 07:23:44;;;;;;;2.07;1.90;;;23.60;97.00;;;;;;4966760;28;20460;-88
2022/06/16 07:26:11;;;;;;;3.57;2.37;;;23.90;96.50;;;;;;4961838;28;21176;-89
2022/06/16 07:28:38;;;;;;;4.40;1.40;;;23.70;96.00;;;;;;4962326;28;20591;-88
2022/06/16 07:31:05;;;;;;;1.60;1.50;;;23.80;97.20;;;;;;4957391;28;20483;-90
2022/06/16 07:33:32;;;;;;;2.23;1.50;;;23.80;96.50;;;;;;4955885;28;20464;-88
2022/06/16 07:36:01;;;;;;;1.80;1.70;;;23.60;95.50;;;;;;4963221;28;20456;-88
2022/06/16 07:38:28;;;;;;;1.30;1.20;;;23.40;94.20;;;;;;4957845;28;20496;-88
2022/06/16 07:41:31;;;;;;;1.77;1.67;;;23.80;93.90;;;;;;4953252;28;20468;-88
2022/06/16 07:43:43;;;;;;;1.90;1.40;;;23.90;93.70;;;;;;4950978;28;20459;-89
2022/06/16 07:46:11;;;;;;;2.00;1.90;;;24.20;93.30;;;;;;4959232;28;21012;-88
2022/06/16 07:48:38;;;;;;;2.23;1.93;;;23.80;93.60;;;;;;4960520;28;20483;-90
2022/06/16 07:51:07;;;;;;;1.63;1.50;;;23.40;94.50;;;;;;4957496;28;20495;-88
2022/06/16 07:53:34;;;;;;;1.50;1.30;;;23.20;93.40;;;;;;4958939;28;20464;-88
2022/06/16 07:56:01;;;;;;;5.53;1.30;;;23.30;93.70;;;;;;4960166;28;20979;-88
2022/06/16 07:58:31;;;;;;;1.50;1.40;;;23.40;93.40;;;;;;4963795;28;21107;-89
2022/06/16 08:01:00;;;;;;;2.60;1.60;;;23.70;92.80;;;;;;4953844;28;20499;-89
2022/06/16 08:03:28;;;;;;;2.13;1.90;;;23.90;91.60;;;;;;4959337;28;20472;-89
2022/06/16 08:05:57;;;;;;;1.97;1.77;;;23.70;92.50;;;;;;4963893;28;20483;-89
2022/06/16 08:08:27;;;;;;;1.43;1.33;;;23.90;92.40;;;;;;4961779;28;20461;-88
2022/06/16 08:10:54;;;;;;;2.97;2.00;;;23.80;95.60;;;;;;4962590;28;20445;-87
2022/06/16 08:13:22;;;;;;;2.20;2.10;;;23.70;94.00;;;;;;4965150;28;20472;-90
2022/06/16 08:15:50;;;;;;;1.70;1.60;;;24.20;94.40;;;;;;4966242;28;20545;-88
2022/06/16 08:18:20;;;;;;;3.47;2.10;;;24.50;94.90;;;;;;4964287;28;21156;-90
2022/06/16 08:20:47;;;;;;;2.03;1.93;;;24.60;94.00;;;;;;4956882;28;20475;-88
2022/06/16 08:23:14;;;;;;;1.83;1.70;;;24.40;95.40;;;;;;4962164;28;21214;-86
2022/06/16 08:25:44;;;;;;;1.60;1.50;;;24.50;96.00;;;;;;4955942;28;20543;-88
2022/06/16 08:28:14;;;;;;;2.00;1.90;;;23.90;95.70;;;;;;4950232;28;20534;-87
2022/06/16 08:30:44;;;;;;;1.70;1.60;;;23.90;95.50;;;;;;4958052;28;21068;-88
2022/06/16 08:33:14;;;;;;;2.00;1.90;;;24.00;95.10;;;;;;4950014;28;20480;-90
2022/06/16 08:35:41;;;;;;;2.17;1.97;;;24.40;94.30;;;;;;4960537;28;20472;-90
2022/06/16 08:38:09;;;;;;;3.87;1.90;;;24.80;96.00;;;;;;4963651;28;20464;-90
2022/06/16 08:40:42;;;;;;;1.93;1.83;;;25.00;94.40;;;;;;4964428;28;20469;-89
2022/06/16 08:43:23;;;;;;;2.80;2.60;;;25.30;92.50;;;;;;4959326;28;20475;-92
2022/06/16 08:45:55;;;;;;;2.23;2.07;;;25.40;94.90;;;;;;4955248;28;20503;-91
2022/06/16 08:48:28;;;;;;;2.13;1.57;;;25.50;91.50;;;;;;4954108;28;20495;-89
2022/06/16 08:51:01;;;;;;;2.10;1.90;;;25.30;90.90;;;;;;4966086;28;20544;-90
2022/06/16 08:53:49;;;;;;;1.93;1.83;;;25.60;92.20;;;;;;4963384;28;20444;-90
2022/06/16 08:56:23;;;;;;;2.20;2.00;;;25.90;91.90;;;;;;4966165;28;20495;-91
2022/06/16 08:58:58;;;;;;;1.67;1.57;;;26.40;91.00;;;;;;4957122;28;20500;-89
2022/06/16 09:01:36;;;;;;;3.10;2.90;;;26.10;90.20;;;;;;4961015;28;20467;-90
2022/06/16 09:04:09;;;;;;;2.50;2.30;;;26.40;90.00;;;;;;4965298;28;20510;-89
2022/06/16 09:06:49;;;;;;;2.70;2.50;;;26.40;90.20;;;;;;4955654;28;20503;-90
2022/06/16 09:12:25;;;;;;;2.50;2.30;;;26.10;90.30;;;;;;4952968;28;20866;-90
2022/06/16 09:15:12;;;;;;;2.73;2.53;;;25.70;90.00;;;;;;4959101;28;20460;-90
2022/06/16 09:17:58;;;;;;;2.07;1.97;;;25.10;91.00;;;;;;4957408;28;20465;-90
2022/06/16 09:20:34;;;;;;;4.53;4.13;;;25.00;93.40;;;;;;4963734;28;20491;-90
2022/06/16 09:23:37;;;;;;;2.40;2.30;;;24.60;93.90;;;;;;4959768;28;20468;-90
2022/06/16 09:26:15;;;;;;;2.23;1.60;;;24.20;93.60;;;;;;4964893;28;20488;-90
2022/06/16 09:28:48;;;;;;;2.77;1.93;;;24.10;94.40;;;;;;4957337;28;21127;-90
2022/06/16 09:31:22;;;;;;;2.10;2.00;;;24.30;95.10;;;;;;4952329;28;20477;-89
2022/06/16 09:33:55;;;;;;;1.70;1.60;;;24.30;95.50;;;;;;4953241;28;21064;-89
2022/06/16 09:36:28;;;;;;;1.70;1.60;;;24.20;95.70;;;;;;4963292;28;20514;-89
2022/06/16 09:38:59;;;;;;;2.30;2.10;;;24.20;96.10;;;;;;4959240;28;20567;-89
2022/06/16 09:44:23;;;;;;;1.80;1.70;;;24.20;94.90;;;;;;4962377;28;20464;-89
2022/06/16 09:46:57;;;;;;;3.17;1.30;;;24.50;96.30;;;;;;4964680;28;20484;-89
2022/06/16 09:49:30;;;;;;;2.67;2.47;;;25.00;97.10;;;;;;4957106;28;21027;-89
2022/06/16 09:52:05;;;;;;;1.53;1.43;;;25.40;94.40;;;;;;4955491;28;20464;-88
2022/06/16 09:54:37;;;;;;;1.20;1.03;;;25.80;94.00;;;;;;4957169;28;20463;-89
2022/06/16 09:57:12;;;;;;;1.47;1.33;;;26.10;87.50;;;;;;4952745;28;20495;-88
2022/06/16 09:59:43;;;;;;;1.30;1.20;;;26.20;85.40;;;;;;4951412;28;20471;-89
2022/06/16 10:02:18;;;;;;;1.03;0.80;;;26.30;79.90;;;;;;4964105;28;20597;-90
2022/06/16 10:04:46;;;;;;;1.43;1.03;;;26.50;86.30;;;;;;4960412;28;20964;-89
2022/06/16 10:07:19;;;;;;;2.60;1.20;;;26.70;80.80;;;;;;4953682;28;20502;-88
2022/06/16 10:09:54;;;;;;;0.90;0.90;;;26.60;77.50;;;;;;4962774;28;20456;-89
2022/06/16 10:12:27;;;;;;;0.70;0.70;;;26.90;75.00;;;;;;4959748;28;20475;-89
2022/06/16 10:15:00;;;;;;;1.07;0.70;;;27.60;70.10;;;;;;4974032;28;20493;-88
2022/06/16 10:17:29;;;;;;;1.20;1.17;;;28.00;67.40;;;;;;4984502;28;20510;-88
2022/06/16 10:19:59;;;;;;;1.00;0.87;;;27.70;64.20;;;;;;4974286;28;20877;-89
2022/06/16 10:22:27;;;;;;;1.07;0.83;;;28.00;72.10;;;;;;4974238;28;20469;-89
2022/06/16 10:25:01;;;;;;;2.00;1.37;;;28.50;69.70;;;;;;4962697;28;20461;-88
2022/06/16 10:27:35;;;;;;;0.80;0.80;;;28.90;64.10;;;;;;4962905;28;20560;-89
2022/06/16 10:30:05;;;;;;;1.33;0.67;;;28.80;60.70;;;;;;4962896;28;20461;-89
2022/06/16 10:32:42;;;;;;;1.37;0.87;;;29.10;60.00;;;;;;4957091;28;20672;-89
2022/06/16 10:35:17;;;;;;;0.87;0.80;;;28.70;61.50;;;;;;4956951;28;20460;-90
2022/06/16 10:37:47;;;;;;;1.30;1.20;;;28.30;62.40;;;;;;4959026;28;20457;-90
2022/06/16 10:40:17;;;;;;;1.33;1.20;;;28.40;64.50;;;;;;4954988;28;20465;-90
2022/06/16 10:42:47;;;;;;;1.20;1.10;;;28.30;68.90;;;;;;4955070;28;20468;-87
2022/06/16 10:45:22;;;;;;;1.67;1.57;;;28.10;75.10;;;;;;4958309;28;20472;-89
2022/06/16 10:47:56;;;;;;;1.03;1.00;;;28.00;74.10;;;;;;4957940;28;20569;-90
2022/06/16 10:50:29;;;;;;;1.50;1.40;;;27.90;76.80;;;;;;4953161;28;20468;-88
2022/06/16 10:53:02;;;;;;;2.07;1.53;;;28.80;83.60;;;;;;4959656;28;21208;-90
2022/06/16 10:55:37;;;;;;;1.07;1.07;;;28.60;72.20;;;;;;4959454;28;20479;-89
2022/06/16 10:58:16;;;;;;;1.53;1.30;;;28.80;77.20;;;;;;4951762;28;21162;-89
2022/06/16 11:00:43;;;;;;;1.73;1.63;;;28.90;82.50;;;;;;4956094;28;20445;-89
2022/06/16 11:03:18;;;;;;;1.77;1.60;;;28.50;69.50;;;;;;4953180;28;20984;-89
2022/06/16 11:05:54;;;;;;;1.43;1.33;;;28.90;75.20;;;;;;4948808;28;20822;-90
2022/06/16 11:08:23;;;;;;;0.90;0.90;;;28.90;65.70;;;;;;4955580;28;20453;-89
2022/06/16 11:10:55;;;;;;;1.40;1.30;;;28.30;64.80;;;;;;4951580;28;20462;-89
2022/06/16 11:13:27;;;;;;;3.53;1.70;;;28.70;70.20;;;;;;4947839;28;20476;-89
2022/06/16 11:15:55;;;;;;;1.47;1.13;;;29.00;74.10;;;;;;4952443;28;20464;-90
2022/06/16 11:18:25;;;;;;;1.20;1.10;;;29.00;70.10;;;;;;4954297;28;21103;-89
2022/06/16 11:20:56;;;;;;;1.70;1.00;;;29.30;70.10;;;;;;4961019;28;20479;-89
2022/06/16 11:23:31;;;;;;;0.50;0.50;;;29.00;61.30;;;;;;4960709;28;20453;-89
2022/06/16 11:26:06;;;;;;;1.70;0.80;;;29.10;52.50;;;;;;4964893;28;20464;-89
2022/06/16 11:28:42;;;;;;;1.43;1.23;;;29.40;65.10;;;;;;4956995;28;20461;-90
2022/06/16 11:31:12;;;;;;;1.73;1.30;;;29.60;60.10;;;;;;4956007;28;20476;-92
2022/06/16 11:37:06;;;;;;;1.63;0.87;;;30.00;58.50;;;;;;4964082;28;20468;-90
2022/06/16 11:39:45;;;;;;;1.13;1.13;;;29.90;53.00;;;;;;4957891;28;20483;-91
2022/06/16 11:42:21;;;;;;;1.10;1.00;;;30.00;57.70;;;;;;4957316;28;20518;-91
2022/06/16 11:44:56;;;;;;;1.23;1.13;;;29.80;55.50;;;;;;4952604;28;20457;-90
2022/06/16 11:47:37;;;;;;;1.57;1.03;;;29.80;57.50;;;;;;4957289;28;20843;-90
2022/06/16 11:50:10;;;;;;;0.90;0.90;;;29.80;58.70;;;;;;4950821;28;20467;-90
2022/06/16 11:52:48;;;;;;;0.90;0.80;;;29.90;59.70;;;;;;4956281;28;20543;-90
2022/06/16 11:55:25;;;;;;;0.80;0.80;;;30.50;57.30;;;;;;4953407;28;20461;-90
2022/06/16 11:58:02;;;;;;;0.80;0.80;;;30.30;58.30;;;;;;4952285;28;20484;-89
2022/06/16 12:00:34;;;;;;;0.97;0.87;;;30.50;58.20;;;;;;4959792;28;20448;-90
2022/06/16 12:03:20;;;;;;;1.37;0.70;;;30.70;60.00;;;;;;4956958;28;20522;-91
2022/06/16 12:06:00;;;;;;;0.90;0.90;;;30.50;53.20;;;;;;4958996;28;20548;-91
2022/06/16 12:08:51;;;;;;;1.03;0.90;;;29.90;54.80;;;;;;4960514;28;20464;-90
2022/06/16 12:11:30;;;;;;;1.00;0.90;;;29.70;54.50;;;;;;4960213;28;20525;-90
2022/06/16 12:14:06;;;;;;;0.80;0.70;;;29.40;54.60;;;;;;4958751;28;20479;-90
2022/06/16 12:16:42;;;;;;;0.70;0.70;;;29.10;57.30;;;;;;4954974;28;20489;-90
2022/06/16 12:19:15;;;;;;;0.70;0.70;;;28.50;58.60;;;;;;4956296;28;20490;-90
2022/06/16 12:21:51;;;;;;;0.70;0.70;;;27.90;57.40;;;;;;4960829;28;20480;-89
2022/06/16 12:24:28;;;;;;;1.17;0.67;;;27.40;58.90;;;;;;4961055;28;20459;-90
2022/06/16 12:27:00;;;;;;;0.80;0.77;;;27.30;61.50;;;;;;4957519;28;20844;-90
2022/06/16 12:29:44;;;;;;;0.60;0.60;;;27.10;62.00;;;;;;4958498;28;20472;-90
2022/06/16 12:32:23;;;;;;;0.80;0.80;;;27.00;65.30;;;;;;4962121;28;21152;-89
2022/06/16 12:35:00;;;;;;;1.97;0.70;;;27.00;64.50;;;;;;4958029;28;20472;-90
2022/06/16 12:37:34;;;;;;;1.00;0.60;;;26.90;66.70;;;;;;4958341;28;20557;-89
2022/06/16 12:40:07;;;;;;;13.83;1.00;;;26.90;69.20;;;;;;4962579;28;20448;-91
2022/06/16 12:42:39;;;;;;;1.20;1.10;;;27.20;73.80;;;;;;4958831;28;20475;-90
2022/06/16 12:45:09;;;;;;;1.10;1.00;;;27.00;69.30;;;;;;4958000;28;20463;-91
2022/06/16 12:47:40;;;;;;;0.90;0.90;;;26.90;71.30;;;;;;4954611;28;20595;-89
2022/06/16 12:50:13;;;;;;;2.07;1.00;;;27.10;74.90;;;;;;4958661;28;20476;-92
2022/06/16 12:52:45;;;;;;;2.13;1.30;;;27.20;74.60;;;;;;4964966;28;21020;-91
2022/06/16 12:55:16;;;;;;;1.23;1.00;;;27.10;75.80;;;;;;4959456;28;20473;-89
2022/06/16 12:57:48;;;;;;;1.10;0.80;;;27.00;77.50;;;;;;4963507;28;20490;-90
2022/06/16 13:00:18;;;;;;;7.90;1.43;;;27.00;78.50;;;;;;4968010;28;20474;-90
2022/06/16 13:02:49;;;;;;;1.20;1.20;;;27.00;81.00;;;;;;4960505;28;21004;-89
2022/06/16 13:05:20;;;;;;;1.87;1.77;;;26.80;82.80;;;;;;4983270;28;20496;-91
2022/06/16 13:07:53;;;;;;;1.67;1.40;;;26.60;82.50;;;;;;4959077;28;20488;-88
2022/06/16 13:10:20;;;;;;;2.33;1.77;;;26.40;84.40;;;;;;4957711;28;20461;-89
2022/06/16 13:12:53;;;;;;;1.17;1.07;;;26.30;85.60;;;;;;4957735;28;20991;-90
2022/06/16 13:15:27;;;;;;;1.00;1.00;;;26.40;86.10;;;;;;4972204;28;20468;-91
2022/06/16 13:18:00;;;;;;;1.10;1.10;;;26.40;84.60;;;;;;4971941;28;20487;-89
2022/06/16 13:20:33;;;;;;;2.80;1.37;;;26.90;87.70;;;;;;4970618;28;20492;-91
2022/06/16 13:23:12;;;;;;;1.07;1.07;;;27.10;86.20;;;;;;4970731;28;20460;-93
2022/06/16 13:25:51;;;;;;;1.27;1.17;;;27.80;85.00;;;;;;4962105;28;20465;-92
2022/06/16 13:28:27;;;;;;;1.13;0.87;;;28.10;79.90;;;;;;4961365;28;20492;-90
2022/06/16 13:31:22;;;;;;;1.30;1.20;;;29.00;84.20;;;;;;4963855;28;20532;-91
2022/06/16 13:33:52;;;;;;;1.10;1.10;;;29.70;77.60;;;;;;4965985;28;20944;-92
2022/06/16 13:36:47;;;;;;;1.47;1.30;;;30.00;70.60;;;;;;4960352;28;20461;-93